Time;durP1;ratioP1;P1;durP2;ratioP2;P2;SDS_P1;SDS_P2;PMS_P1;PMS_P2;Temp;Humidity;BMP_temperature;BMP_pressure;BME280_temperature;BME280_humidity;BME280_pressure;Samples;Min_cycle;Max_cycle;Signal;HPM_P1;HPM_P2
2021/04/17 00:00:07;;;;;;;9.70;7.50;;;;;;;8.13;59.32;100880.59;1761576;80;21200;-53
2021/04/17 00:02:37;;;;;;;11.12;8.03;;;;;;;7.39;61.00;100888.78;1761677;81;21139;-67
2021/04/17 00:05:07;;;;;;;10.95;8.23;;;;;;;7.26;61.60;100886.48;1754430;80;21130;-53
2021/04/17 00:07:36;;;;;;;9.23;7.22;;;;;;;7.94;59.90;100881.77;1731258;82;21147;-67
2021/04/17 00:10:06;;;;;;;9.58;7.30;;;;;;;7.99;59.61;100886.62;1739062;81;21155;-54
2021/04/17 00:12:34;;;;;;;12.15;7.85;;;;;;;7.98;59.58;100888.80;1738314;81;21293;-54
2021/04/17 00:15:03;;;;;;;11.97;7.97;;;;;;;7.96;59.65;100885.70;1745603;81;21554;-66
2021/04/17 00:17:31;;;;;;;11.43;8.10;;;;;;;7.92;59.58;100886.58;1696282;84;21153;-66
2021/04/17 00:19:58;;;;;;;15.18;8.88;;;;;;;7.83;59.70;100880.81;1707302;84;21169;-53
2021/04/17 00:22:26;;;;;;;13.53;8.98;;;;;;;7.80;59.81;100876.45;1704360;84;21151;-66
2021/04/17 00:24:54;;;;;;;12.85;9.08;;;;;;;7.79;59.88;100877.31;1702135;83;21590;-66
2021/04/17 00:27:22;;;;;;;12.95;9.73;;;;;;;7.79;59.87;100875.11;1698255;84;21299;-52
2021/04/17 00:29:49;;;;;;;13.22;9.68;;;;;;;7.76;59.95;100879.91;1707805;84;21575;-53
2021/04/17 00:32:17;;;;;;;12.35;8.50;;;;;;;7.88;59.79;100884.34;1721032;83;21285;-66
2021/04/17 00:34:45;;;;;;;12.85;9.00;;;;;;;7.74;60.24;100881.64;1724591;82;21178;-66
2021/04/17 00:37:13;;;;;;;12.63;8.75;;;;;;;7.71;60.29;100881.61;1725282;83;21112;-53
2021/04/17 00:39:41;;;;;;;12.95;9.08;;;;;;;7.69;60.43;100884.23;1698350;83;21121;-52
2021/04/17 00:42:10;;;;;;;13.13;9.83;;;;;;;7.72;60.38;100893.84;1718497;83;21152;-53
2021/04/17 00:44:37;;;;;;;11.48;8.08;;;;;;;7.71;60.42;100886.44;1696490;83;21163;-66
2021/04/17 00:47:06;;;;;;;10.60;7.90;;;;;;;7.73;60.39;100889.05;1705712;83;21167;-66
2021/04/17 00:49:35;;;;;;;11.15;8.28;;;;;;;7.73;60.35;100883.81;1721280;82;21143;-66
2021/04/17 00:52:04;;;;;;;10.85;8.13;;;;;;;7.72;60.30;100890.81;1673992;84;21313;-66
2021/04/17 00:54:32;;;;;;;11.18;8.28;;;;;;;7.70;60.42;100887.72;1661141;85;21595;-53
2021/04/17 00:56:59;;;;;;;13.55;9.53;;;;;;;7.69;60.30;100897.75;1695655;84;21315;-53
2021/04/17 00:59:27;;;;;;;11.15;8.43;;;;;;;7.67;60.33;100895.55;1686701;84;21748;-66
2021/04/17 01:01:56;;;;;;;11.22;8.63;;;;;;;7.67;60.49;100902.10;1723309;82;21115;-53
2021/04/17 01:04:34;;;;;;;11.03;8.55;;;;;;;7.64;60.82;100909.52;1718410;82;21188;-53
2021/04/17 01:07:21;;;;;;;10.50;8.78;;;;;;;7.63;60.89;100902.94;1671997;85;21180;-66
2021/04/17 01:10:21;;;;;;;9.38;7.33;;;;;;;7.61;60.84;100910.80;1725447;81;21092;-52
2021/04/17 01:12:51;;;;;;;9.67;7.33;;;;;;;7.61;60.90;100916.04;1748783;81;21151;-66
2021/04/17 01:15:19;;;;;;;;;;;;;;;7.62;60.76;100915.59;1731365;81;21126;-52
2021/04/17 01:17:52;;;;;;;10.43;7.25;;;;;;;7.58;60.64;100910.77;1726257;82;20200;-66
2021/04/17 01:20:26;;;;;;;10.13;7.33;;;;;;;7.55;60.64;100914.67;1718439;82;21179;-52
2021/04/17 01:23:20;;;;;;;9.75;7.42;;;;;;;7.53;60.69;100912.47;1718708;83;21294;-52
2021/04/17 01:26:05;;;;;;;10.32;8.48;;;;;;;7.50;60.69;100918.58;1733731;82;21558;-55
2021/04/17 01:28:37;;;;;;;11.08;7.80;;;;;;;7.46;60.62;100913.27;1738180;82;21183;-66
2021/04/17 01:31:06;;;;;;;10.00;7.75;;;;;;;7.40;60.59;100912.34;1748541;82;21135;-53
2021/04/17 01:33:39;;;;;;;10.23;7.60;;;;;;;7.38;60.51;100921.07;1748537;82;21189;-66
2021/04/17 01:36:08;;;;;;;10.18;7.42;;;;;;;7.39;60.40;100926.75;1737360;82;21135;-66
2021/04/17 01:38:55;;;;;;;10.25;8.15;;;;;;;7.45;60.11;100926.81;1748101;81;21135;-66
2021/04/17 01:41:29;;;;;;;11.33;8.25;;;;;;;7.44;60.01;100919.83;1748828;82;21136;-52
2021/04/17 01:43:59;;;;;;;11.28;7.80;;;;;;;7.38;59.94;100916.70;1748024;81;21605;-66
2021/04/17 01:46:29;;;;;;;11.38;7.83;;;;;;;7.33;59.91;100926.69;1737435;82;21123;-67
2021/04/17 01:49:03;;;;;;;10.93;7.22;;;;;;;7.26;59.89;100923.14;1748560;81;21167;-66
2021/04/17 01:51:32;;;;;;;8.43;6.60;;;;;;;7.22;59.86;100922.66;1748145;82;21186;-66
2021/04/17 01:54:03;;;;;;;8.65;6.47;;;;;;;7.18;60.03;100917.81;1737789;82;21576;-66
2021/04/17 01:56:31;;;;;;;11.95;8.00;;;;;;;6.81;60.63;100912.17;1727826;82;21143;-52
2021/04/17 01:58:59;;;;;;;11.80;6.97;;;;;;;6.18;62.34;100920.09;1726443;82;21170;-66
2021/04/17 02:01:27;;;;;;;10.93;8.10;;;;;;;6.05;62.71;100918.59;1726340;83;21178;-66
2021/04/17 02:03:55;;;;;;;12.15;7.97;;;;;;;5.96;63.07;100917.97;1686401;85;21179;-52
2021/04/17 02:06:23;;;;;;;8.90;6.75;;;;;;;5.92;63.19;100918.81;1726140;83;21175;-53
2021/04/17 02:08:52;;;;;;;10.15;7.33;;;;;;;5.87;63.30;100917.86;1726498;82;21191;-52
2021/04/17 02:11:20;;;;;;;10.85;7.92;;;;;;;5.79;63.46;100927.30;1730915;82;21111;-53
2021/04/17 02:13:48;;;;;;;11.30;8.55;;;;;;;6.19;62.15;100921.41;1748857;80;21143;-66
2021/04/17 02:16:18;;;;;;;12.85;8.88;;;;;;;5.79;63.71;100920.77;1756111;81;21151;-66
2021/04/17 02:19:01;;;;;;;10.58;7.72;;;;;;;6.60;61.97;100911.48;1756251;80;21160;-52
2021/04/17 02:21:40;;;;;;;10.03;7.83;;;;;;;6.66;61.65;100908.50;1752559;81;21147;-66
2021/04/17 02:24:09;;;;;;;11.28;8.18;;;;;;;6.60;61.37;100903.22;1726611;82;21704;-54
2021/04/17 02:26:37;;;;;;;11.10;8.28;;;;;;;6.58;61.02;100904.94;1708427;83;21164;-66
2021/04/17 02:29:07;;;;;;;11.80;7.75;;;;;;;6.54;60.92;100905.75;1685184;83;21184;-54
2021/04/17 02:31:34;;;;;;;10.90;7.60;;;;;;;6.52;60.90;100915.31;1737453;81;21142;-67
2021/04/17 02:34:03;;;;;;;11.95;8.53;;;;;;;6.51;61.06;100913.56;1726025;82;21324;-67
2021/04/17 02:36:31;;;;;;;10.43;7.85;;;;;;;6.50;60.93;100907.87;1726389;82;21155;-54
2021/04/17 02:38:58;;;;;;;11.00;8.10;;;;;;;6.49;61.07;100907.43;1727013;81;21281;-67
2021/04/17 02:41:26;;;;;;;10.08;8.35;;;;;;;6.49;61.05;100908.30;1715244;83;21170;-53
2021/04/17 02:43:54;;;;;;;12.25;8.43;;;;;;;6.50;60.85;100913.97;1756001;82;21309;-67
2021/04/17 02:46:23;;;;;;;14.05;8.48;;;;;;;6.46;60.60;100911.31;1756083;82;21119;-67
2021/04/17 02:48:52;;;;;;;12.73;8.43;;;;;;;6.40;60.55;100917.34;1752736;82;21255;-54
2021/04/17 02:51:20;;;;;;;13.65;8.43;;;;;;;6.33;60.68;100913.75;1746709;82;21147;-53
2021/04/17 02:53:49;;;;;;;10.35;7.65;;;;;;;6.36;60.43;100909.02;1756859;80;21281;-67
2021/04/17 02:56:16;;;;;;;11.12;8.45;;;;;;;6.36;60.36;100918.16;1761468;81;21142;-55
2021/04/17 02:58:44;;;;;;;10.82;8.53;;;;;;;6.32;60.39;100921.59;1752899;81;21138;-67
2021/04/17 03:01:12;;;;;;;12.13;8.55;;;;;;;6.33;60.35;100924.66;1692124;84;21191;-53
2021/04/17 03:03:41;;;;;;;11.73;7.85;;;;;;;6.30;60.46;100925.91;1694806;85;21173;-53
2021/04/17 03:06:09;;;;;;;11.97;7.70;;;;;;;6.22;60.39;100920.14;1690911;84;21121;-67
2021/04/17 03:08:36;;;;;;;148.38;125.95;;;;;;;6.16;60.32;100930.95;1679812;83;21151;-53
2021/04/17 03:11:04;;;;;;;25.57;22.90;;;;;;;6.10;60.27;100925.19;1690997;85;21165;-53
2021/04/17 03:13:33;;;;;;;14.70;11.30;;;;;;;6.03;60.22;100924.64;1690859;85;21161;-53
2021/04/17 03:16:01;;;;;;;13.38;9.53;;;;;;;6.00;60.19;100928.47;1688959;83;21166;-53
2021/04/17 03:18:29;;;;;;;11.20;8.85;;;;;;;5.92;60.38;100927.95;1695387;83;21198;-54
2021/04/17 03:20:58;;;;;;;18.27;8.95;;;;;;;5.86;60.54;100929.16;1717910;83;21180;-66
2021/04/17 03:23:26;;;;;;;10.38;7.45;;;;;;;5.76;60.97;100937.25;1719157;82;21155;-66
2021/04/17 03:25:54;;;;;;;17.35;8.88;;;;;;;5.85;60.60;100935.65;1714103;83;21139;-54
2021/04/17 03:28:22;;;;;;;13.72;9.75;;;;;;;5.87;60.83;100942.67;1692320;83;21134;-68
2021/04/17 03:30:50;;;;;;;11.53;8.40;;;;;;;5.90;60.95;100933.58;1719616;83;21574;-54
2021/04/17 03:33:18;;;;;;;13.75;8.70;;;;;;;5.39;62.14;100937.93;1725431;83;21127;-54
2021/04/17 03:35:47;;;;;;;11.53;8.00;;;;;;;5.03;63.43;100941.20;1723028;82;21182;-67
2021/04/17 03:38:14;;;;;;;12.40;8.65;;;;;;;5.62;62.39;100940.95;1723715;83;22161;-54
2021/04/17 03:40:42;;;;;;;10.65;7.92;;;;;;;5.10;63.76;100950.43;1725622;83;21724;-54
2021/04/17 03:43:10;;;;;;;11.05;8.58;;;;;;;5.08;64.01;100955.64;1725132;83;21180;-54
2021/04/17 03:45:38;;;;;;;10.63;8.15;;;;;;;5.10;64.03;100955.65;1721693;83;21468;-54
2021/04/17 03:48:06;;;;;;;12.03;7.60;;;;;;;5.13;64.20;100961.83;1725323;83;21095;-54
2021/04/17 03:50:34;;;;;;;9.38;7.17;;;;;;;5.17;64.30;100961.04;1724431;83;21187;-66
2021/04/17 03:53:02;;;;;;;10.40;7.28;;;;;;;5.21;64.44;100966.77;1721397;82;21301;-54
2021/04/17 03:55:30;;;;;;;11.55;7.60;;;;;;;5.23;64.50;100964.62;1707919;82;21277;-54
2021/04/17 03:57:58;;;;;;;11.20;8.05;;;;;;;5.27;64.71;100967.30;1709972;84;21575;-54
2021/04/17 04:00:25;;;;;;;13.98;8.20;;;;;;;5.31;64.83;100969.53;1710787;84;21188;-66
2021/04/17 04:02:53;;;;;;;9.45;7.05;;;;;;;5.33;65.04;100968.73;1740930;82;21103;-54
2021/04/17 04:05:20;;;;;;;11.65;7.87;;;;;;;5.38;65.16;100971.86;1755956;80;21182;-66
2021/04/17 04:07:49;;;;;;;12.40;8.05;;;;;;;5.41;65.37;100978.00;1755885;81;21123;-66
2021/04/17 04:10:17;;;;;;;10.65;7.70;;;;;;;5.48;65.60;100978.57;1755820;82;21566;-54
2021/04/17 04:12:45;;;;;;;10.68;7.60;;;;;;;5.61;65.70;100973.58;1747629;82;21175;-66
2021/04/17 04:15:13;;;;;;;10.75;8.03;;;;;;;5.70;65.80;100972.84;1756384;80;21635;-55
2021/04/17 04:17:41;;;;;;;10.95;8.33;;;;;;;5.75;66.00;100974.67;1756365;82;21154;-65
2021/04/17 04:20:10;;;;;;;9.83;7.33;;;;;;;5.87;66.03;100974.03;1751772;82;21185;-54
2021/04/17 04:22:39;;;;;;;10.65;8.68;;;;;;;5.93;66.27;100975.84;1753262;82;21590;-54
2021/04/17 04:25:08;;;;;;;12.82;9.05;;;;;;;6.84;64.54;100981.11;1719837;83;21184;-54
2021/04/17 04:27:36;;;;;;;11.55;8.55;;;;;;;7.20;63.92;100977.61;1756035;82;21123;-54
2021/04/17 04:30:07;;;;;;;12.73;9.10;;;;;;;7.42;63.62;100977.41;1753668;82;21139;-54
2021/04/17 04:32:35;;;;;;;;;;;;;;;7.62;63.59;100981.98;1722504;83;21158;-54
2021/04/17 04:35:05;;;;;;;9.55;6.85;;;;;;;7.82;63.40;100974.72;1702225;83;20215;-66
2021/04/17 04:37:52;;;;;;;;;;;;;;;7.99;63.26;100981.41;1700123;84;21322;-66
2021/04/17 04:40:23;;;;;;;9.23;7.00;;;;;;;8.13;63.29;100977.16;1774039;81;20164;-68
2021/04/17 04:42:52;;;;;;;10.98;7.85;;;;;;;8.32;63.58;100976.85;1749220;81;21620;-54
2021/04/17 04:45:20;;;;;;;11.70;9.00;;;;;;;8.52;63.71;100983.13;1763358;80;21757;-54
2021/04/17 04:47:48;;;;;;;14.63;9.05;;;;;;;8.69;63.59;100977.96;1788586;80;21570;-55
2021/04/17 04:50:17;;;;;;;12.13;8.90;;;;;;;8.86;63.31;100975.41;1744664;80;21169;-54
2021/04/17 04:52:45;;;;;;;11.25;8.73;;;;;;;9.03;63.59;100976.37;1766115;81;21166;-54
2021/04/17 04:55:14;;;;;;;10.30;8.43;;;;;;;9.24;63.86;100977.33;1776388;80;21095;-58
2021/04/17 04:57:42;;;;;;;11.15;8.85;;;;;;;9.44;64.01;100977.80;1747521;81;21162;-55
2021/04/17 05:00:12;;;;;;;10.68;8.58;;;;;;;9.62;64.32;100972.58;1716599;82;21091;-66
2021/04/17 05:02:40;;;;;;;13.68;9.38;;;;;;;9.85;64.08;100976.10;1792716;80;21145;-54
2021/04/17 05:05:09;;;;;;;9.83;8.43;;;;;;;9.95;64.17;100976.09;1753548;81;21613;-66
2021/04/17 05:07:37;;;;;;;10.20;8.58;;;;;;;10.12;64.13;100973.91;1738471;82;21456;-54
2021/04/17 05:10:26;;;;;;;8.80;7.90;;;;;;;10.27;64.14;100969.06;1773940;81;21139;-66
2021/04/17 05:12:55;;;;;;;9.83;7.97;;;;;;;10.53;64.21;100972.09;1735467;83;21158;-54
2021/04/17 05:15:23;;;;;;;10.70;8.75;;;;;;;10.74;63.57;100971.61;1740855;81;21545;-54
2021/04/17 05:17:50;;;;;;;9.20;7.35;;;;;;;10.93;63.56;100971.09;1733988;83;21700;-65
2021/04/17 05:20:19;;;;;;;10.38;8.23;;;;;;;11.10;63.36;100969.23;1704730;84;21330;-54
2021/04/17 05:22:46;;;;;;;10.78;8.68;;;;;;;11.30;63.48;100967.81;1733945;83;21648;-54
2021/04/17 05:25:15;;;;;;;10.88;7.15;;;;;;;11.51;64.13;100964.62;1762587;80;21584;-54
2021/04/17 05:27:43;;;;;;;10.48;7.50;;;;;;;11.71;63.15;100964.90;1779818;80;21152;-55
2021/04/17 05:30:13;;;;;;;8.53;6.42;;;;;;;11.86;61.96;100977.12;1780117;79;21201;-66
2021/04/17 05:32:41;;;;;;;10.55;6.85;;;;;;;12.00;61.72;100971.30;1766376;80;21153;-57
2021/04/17 05:35:11;;;;;;;9.93;7.22;;;;;;;12.13;60.73;100964.17;1761646;80;21585;-55
2021/04/17 05:37:38;;;;;;;13.15;8.00;;;;;;;12.27;60.46;100966.67;1764283;81;21287;-55
2021/04/17 05:40:29;;;;;;;12.25;7.65;;;;;;;12.42;60.02;100973.98;1764313;80;21605;-55
2021/04/17 05:42:57;;;;;;;9.25;7.03;;;;;;;12.52;59.27;100968.18;1768458;80;21098;-55
2021/04/17 05:45:24;;;;;;;9.43;6.72;;;;;;;12.67;59.14;100968.45;1778390;80;21177;-66
2021/04/17 05:47:52;;;;;;;10.55;7.80;;;;;;;12.90;58.94;100969.03;1770111;81;21161;-66
2021/04/17 05:50:21;;;;;;;12.47;8.23;;;;;;;13.11;58.58;100970.98;1768232;80;21169;-66
2021/04/17 05:52:49;;;;;;;14.70;7.45;;;;;;;13.31;57.39;100971.14;1775138;80;21162;-66
2021/04/17 05:55:16;;;;;;;8.05;5.75;;;;;;;13.51;57.26;100966.91;1786158;80;21173;-55
2021/04/17 05:57:44;;;;;;;8.58;6.00;;;;;;;13.68;54.30;100960.06;1786121;80;21174;-66
2021/04/17 06:00:13;;;;;;;8.13;5.95;;;;;;;13.77;54.64;100961.68;1780803;80;21170;-55
2021/04/17 06:02:41;;;;;;;8.50;6.15;;;;;;;13.93;53.91;100965.80;1769827;80;21115;-55
2021/04/17 06:05:11;;;;;;;7.15;4.97;;;;;;;14.12;54.16;100962.84;1769885;81;21601;-66
2021/04/17 06:07:40;;;;;;;6.42;4.83;;;;;;;14.32;51.99;100966.45;1769990;81;21175;-66
2021/04/17 06:10:10;;;;;;;8.08;4.97;;;;;;;14.52;51.88;100966.55;1769008;81;21158;-65
2021/04/17 06:12:38;;;;;;;6.70;4.83;;;;;;;14.72;52.27;100967.03;1739786;82;21149;-66
2021/04/17 06:15:09;;;;;;;5.95;4.60;;;;;;;14.92;51.35;100967.09;1739321;82;21338;-65
2021/04/17 06:17:36;;;;;;;6.50;4.08;;;;;;;14.50;53.09;100978.94;1739404;82;21157;-56
2021/04/17 06:20:07;;;;;;;4.80;3.45;;;;;;;15.24;50.68;100975.23;1762597;80;21117;-66
2021/04/17 06:22:35;;;;;;;8.45;3.92;;;;;;;15.07;49.93;100972.52;1712542;84;21266;-66
2021/04/17 06:25:06;;;;;;;5.22;4.10;;;;;;;15.54;46.66;100975.45;1740598;81;21177;-55
2021/04/17 06:27:34;;;;;;;5.15;3.80;;;;;;;15.63;45.68;100973.03;1759434;81;21159;-55
2021/04/17 06:30:04;;;;;;;5.45;3.58;;;;;;;15.72;45.00;100979.45;1759391;80;21100;-55
2021/04/17 06:32:32;;;;;;;4.20;3.50;;;;;;;15.88;44.79;100987.94;1754572;81;21130;-55
2021/04/17 06:35:00;;;;;;;4.22;3.08;;;;;;;16.08;47.04;100985.25;1754809;81;21766;-65
2021/04/17 06:37:29;;;;;;;4.00;2.75;;;;;;;16.24;43.28;100983.07;1762028;81;21148;-65
2021/04/17 06:39:57;;;;;;;4.10;2.77;;;;;;;16.27;42.24;100984.32;1770834;80;21145;-55
2021/04/17 06:42:26;;;;;;;4.28;3.10;;;;;;;16.34;41.98;100990.75;1769154;81;21156;-55
2021/04/17 06:44:54;;;;;;;3.95;3.27;;;;;;;16.45;42.01;100989.59;1769907;81;21169;-55
2021/04/17 06:47:22;;;;;;;4.10;3.40;;;;;;;16.55;42.96;100991.53;1771100;80;21152;-65
2021/04/17 06:49:50;;;;;;;5.90;3.55;;;;;;;16.79;40.69;100985.98;1785839;80;21162;-55
2021/04/17 06:52:18;;;;;;;5.40;4.08;;;;;;;16.77;41.19;100986.48;1753303;81;21161;-55
2021/04/17 06:54:46;;;;;;;4.87;3.27;;;;;;;16.89;44.11;100986.59;1769449;81;21134;-66
2021/04/17 06:57:14;;;;;;;4.78;3.10;;;;;;;17.22;44.30;100988.74;1765941;80;21138;-56
2021/04/17 06:59:42;;;;;;;5.33;3.47;;;;;;;17.59;44.82;100980.08;1769354;81;21125;-55
2021/04/17 07:02:16;;;;;;;4.37;3.10;;;;;;;17.94;43.52;100980.70;1764959;81;21174;-65
2021/04/17 07:04:45;;;;;;;4.03;3.15;;;;;;;18.20;41.19;100982.97;1751001;81;21594;-55
2021/04/17 07:07:13;;;;;;;4.35;3.20;;;;;;;18.34;40.12;100977.62;1725594;82;21134;-55
2021/04/17 07:09:43;;;;;;;5.85;3.83;;;;;;;18.51;42.10;100978.35;1708464;83;21105;-66
2021/04/17 07:12:14;;;;;;;4.30;3.47;;;;;;;18.88;40.44;100977.88;1722297;82;21166;-56
2021/04/17 07:14:48;;;;;;;5.65;3.60;;;;;;;18.96;38.81;100974.09;1728703;82;21349;-55
2021/04/17 07:17:16;;;;;;;5.03;3.40;;;;;;;18.83;38.13;100976.30;1750818;82;21143;-56
2021/04/17 07:20:00;;;;;;;4.15;3.17;;;;;;;18.69;35.86;100979.47;1745341;82;21154;-56
2021/04/17 07:22:32;;;;;;;4.05;3.05;;;;;;;18.42;34.83;100979.56;1737581;82;21142;-64
2021/04/17 07:25:12;;;;;;;4.35;3.42;;;;;;;17.60;36.01;100983.59;1737890;80;21151;-56
2021/04/17 07:27:51;;;;;;;5.10;3.70;;;;;;;17.41;37.68;100992.63;1738942;82;21500;-65
2021/04/17 07:30:30;;;;;;;4.37;2.72;;;;;;;17.45;39.81;100987.62;1737553;82;21599;-65
2021/04/17 07:33:14;;;;;;;7.53;4.08;;;;;;;17.77;37.92;100992.37;1694181;83;21151;-55
2021/04/17 07:35:46;;;;;;;5.37;3.47;;;;;;;18.68;36.72;100979.95;1686011;84;21181;-65
2021/04/17 07:38:26;;;;;;;4.80;3.72;;;;;;;18.50;36.07;100978.83;1730750;82;21150;-64
2021/04/17 07:41:06;;;;;;;5.12;3.67;;;;;;;18.93;36.69;100972.84;1687112;84;21154;-64
2021/04/17 07:43:58;;;;;;;4.65;3.42;;;;;;;18.47;38.37;100973.61;1790339;80;21304;-55
2021/04/17 07:46:28;;;;;;;;;;;;;;;18.65;38.98;100965.41;1796252;80;21602;-55
2021/04/17 07:49:15;;;;;;;;;;;;;;;19.03;38.77;100970.23;1759718;81;20167;-65
2021/04/17 07:52:10;;;;;;;4.72;3.12;;;;;;;19.07;34.32;100964.34;1734145;81;20276;-66
2021/04/17 07:55:03;;;;;;;5.22;3.72;;;;;;;18.81;35.52;100964.36;1716148;83;21346;-65
2021/04/17 07:57:36;;;;;;;5.17;3.58;;;;;;;18.81;36.64;100960.36;1732291;82;21165;-64
2021/04/17 08:00:08;;;;;;;5.60;4.20;;;;;;;18.95;35.38;100964.31;1723116;82;21207;-56
2021/04/17 08:02:39;;;;;;;5.50;3.80;;;;;;;18.76;34.59;100953.00;1758894;81;21128;-65
2021/04/17 08:05:09;;;;;;;5.45;3.58;;;;;;;18.58;34.17;100958.07;1726540;81;21125;-55
2021/04/17 08:07:37;;;;;;;7.22;4.60;;;;;;;18.46;33.73;100957.20;1753830;81;21117;-65
2021/04/17 08:10:07;;;;;;;12.55;4.62;;;;;;;18.28;33.95;100954.27;1733899;81;21683;-65
2021/04/17 08:12:36;;;;;;;7.67;4.65;;;;;;;18.23;35.53;100957.55;1745478;80;21178;-55
2021/04/17 08:15:07;;;;;;;5.03;3.90;;;;;;;19.04;34.44;100952.45;1763176;79;21165;-56
2021/04/17 08:17:39;;;;;;;5.30;3.85;;;;;;;19.36;33.45;100950.30;1753911;81;21569;-56
2021/04/17 08:20:09;;;;;;;4.50;3.80;;;;;;;19.44;33.02;100951.72;1736606;81;21110;-65
2021/04/17 08:22:39;;;;;;;5.58;3.37;;;;;;;19.40;33.56;100943.47;1765563;81;21137;-55
2021/04/17 08:25:08;;;;;;;4.53;2.90;;;;;;;19.56;34.97;100944.16;1761424;79;21165;-63
2021/04/17 08:27:37;;;;;;;4.10;2.90;;;;;;;19.71;31.51;100950.20;1764123;80;21397;-54
2021/04/17 08:30:07;;;;;;;3.98;2.92;;;;;;;19.50;29.86;100944.40;1761005;81;21649;-64
2021/04/17 08:32:38;;;;;;;3.40;2.47;;;;;;;19.14;30.46;100948.02;1715327;83;21319;-54
2021/04/17 08:35:22;;;;;;;4.17;3.27;;;;;;;18.95;30.94;100941.16;1716051;82;21153;-64
2021/04/17 08:37:57;;;;;;;4.30;3.35;;;;;;;18.86;30.45;100950.84;1753607;80;21145;-65
2021/04/17 08:40:42;;;;;;;4.33;3.12;;;;;;;18.51;32.00;100945.92;1762307;79;21121;-65
2021/04/17 08:43:22;;;;;;;4.75;3.10;;;;;;;18.46;32.53;100951.87;1736706;80;21174;-65
2021/04/17 08:46:13;;;;;;;3.98;2.65;;;;;;;18.40;32.34;100944.95;1741514;81;21568;-55
2021/04/17 08:48:51;;;;;;;4.58;2.85;;;;;;;18.36;32.54;100939.80;1739356;82;21126;-64
2021/04/17 08:51:31;;;;;;;3.87;2.75;;;;;;;18.31;32.16;100932.44;1742968;82;21297;-55
2021/04/17 08:54:06;;;;;;;5.25;3.12;;;;;;;18.22;32.76;100934.49;1736702;82;21641;-55
2021/04/17 08:56:56;;;;;;;3.70;2.80;;;;;;;18.26;33.28;100928.14;1742853;81;21589;-65
2021/04/17 08:59:35;;;;;;;4.65;2.42;;;;;;;18.49;33.04;100926.45;1742886;82;21263;-65
2021/04/17 09:02:15;;;;;;;3.52;2.25;;;;;;;18.36;32.54;100932.66;1740497;82;21266;-65
2021/04/17 09:05:05;;;;;;;;;;;;;;;18.25;30.40;100927.73;1757760;81;21545;-65
2021/04/17 09:07:37;;;;;;;3.27;1.98;;;;;;;18.33;28.88;100935.44;1752528;80;20126;-65
2021/04/17 09:10:31;;;;;;;3.17;2.17;;;;;;;18.45;28.97;100926.59;1727751;82;21618;-55
2021/04/17 09:13:18;;;;;;;2.60;1.95;;;;;;;19.39;29.16;100925.70;1672418;83;21311;-65
2021/04/17 09:16:05;;;;;;;4.17;2.70;;;;;;;19.20;26.67;100918.91;1709800;83;21131;-55
2021/04/17 09:18:40;;;;;;;4.20;3.00;;;;;;;18.76;29.45;100922.33;1730681;82;21171;-65
2021/04/17 09:21:24;;;;;;;3.95;2.52;;;;;;;18.85;30.17;100915.77;1714991;83;21221;-65
2021/04/17 09:23:53;;;;;;;4.28;3.27;;;;;;;19.13;31.41;100910.74;1710026;83;21797;-64
2021/04/17 09:26:37;;;;;;;7.25;3.20;;;;;;;19.34;31.06;100916.13;1707395;82;21129;-56
2021/04/17 09:29:26;;;;;;;3.90;3.08;;;;;;;20.19;31.00;100907.27;1750750;80;21158;-55
2021/04/17 09:31:58;;;;;;;4.45;2.33;;;;;;;20.57;28.49;100899.31;1750434;82;21115;-57
2021/04/17 09:34:26;;;;;;;3.77;1.60;;;;;;;20.61;28.33;100898.23;1730935;82;21668;-55
2021/04/17 09:36:54;;;;;;;2.58;1.42;;;;;;;20.68;24.02;100896.62;1752359;82;21173;-55
2021/04/17 09:39:27;;;;;;;2.77;1.70;;;;;;;20.71;24.88;100893.80;1755836;82;21149;-55
2021/04/17 09:42:01;;;;;;;2.47;1.40;;;;;;;20.69;25.11;100883.64;1757831;80;21259;-55
2021/04/17 09:44:49;;;;;;;1.77;1.00;;;;;;;;;;1765119;81;21702;-64
2021/04/17 09:47:18;;;;;;;2.72;1.52;;;;;;;20.82;24.26;100882.14;1766301;81;21122;-55
2021/04/17 09:49:48;;;;;;;2.63;1.30;;;;;;;20.92;23.62;100885.27;1745411;81;21563;-54
2021/04/17 09:52:19;;;;;;;5.58;3.25;;;;;;;20.79;22.87;100882.28;1741084;82;21462;-63
2021/04/17 09:54:49;;;;;;;2.98;1.50;;;;;;;20.73;23.56;100889.25;1768455;81;21156;-62
2021/04/17 09:57:17;;;;;;;2.52;1.27;;;;;;;;;;1771183;81;21600;-64
2021/04/17 10:00:00;;;;;;;2.42;1.20;;;;;;;20.70;23.50;100875.53;1745805;81;21316;-63
2021/04/17 10:02:47;;;;;;;1.57;0.95;;;;;;;20.80;23.85;100873.31;1713680;82;21153;-63
2021/04/17 10:05:34;;;;;;;3.30;1.30;;;;;;;20.87;24.99;100861.88;1753315;81;21186;-54
2021/04/17 10:08:02;;;;;;;3.87;1.82;;;;;;;20.92;23.92;100862.03;1739412;81;21643;-64
2021/04/17 10:10:36;;;;;;;2.85;1.50;;;;;;;20.80;24.38;100871.98;1737613;82;21165;-55
2021/04/17 10:13:04;;;;;;;2.20;1.50;;;;;;;20.53;24.26;100866.97;1765349;80;21189;-54
2021/04/17 10:15:34;;;;;;;6.12;1.90;;;;;;;20.30;24.04;100867.56;1769593;81;21123;-55
2021/04/17 10:18:06;;;;;;;2.65;1.60;;;;;;;20.03;24.31;100873.19;1768812;81;21126;-64
2021/04/17 10:20:36;;;;;;;2.60;1.60;;;;;;;19.96;25.07;100864.19;1767852;81;21158;-54
2021/04/17 10:23:04;;;;;;;4.08;1.82;;;;;;;19.91;25.23;100868.38;1728616;82;21167;-54
2021/04/17 10:25:42;;;;;;;2.90;1.98;;;;;;;19.53;25.62;100870.41;1749809;81;21551;-54
2021/04/17 10:28:24;;;;;;;3.00;1.65;;;;;;;19.32;26.62;100868.17;1768984;81;21160;-64
2021/04/17 10:30:54;;;;;;;;;;;;;;;19.42;26.33;100870.87;1770039;80;21135;-64
2021/04/17 10:33:24;;;;;;;3.92;1.45;;;;;;;19.45;25.77;100863.19;1769731;81;20137;-64
2021/04/17 10:35:53;;;;;;;2.42;1.77;;;;;;;19.63;26.44;100858.87;1769430;81;21600;-54
2021/04/17 10:38:36;;;;;;;2.50;1.67;;;;;;;19.80;26.99;100858.14;1769269;80;21683;-54
2021/04/17 10:41:06;;;;;;;5.92;2.10;;;;;;;19.86;27.06;100856.54;1740830;82;21181;-64
2021/04/17 10:43:34;;;;;;;3.52;1.70;;;;;;;19.97;25.94;100850.75;1758082;81;21180;-54
2021/04/17 10:46:04;;;;;;;3.10;1.82;;;;;;;20.21;25.93;100845.26;1705488;84;21114;-63
2021/04/17 10:48:45;;;;;;;3.37;1.85;;;;;;;20.39;26.09;100846.67;1751914;82;21144;-64
2021/04/17 10:51:16;;;;;;;3.52;1.80;;;;;;;20.40;25.81;100847.95;1755770;82;21101;-54
2021/04/17 10:53:47;;;;;;;2.65;1.65;;;;;;;20.46;26.24;100853.02;1755485;82;21603;-64
2021/04/17 10:56:21;;;;;;;2.50;1.50;;;;;;;20.55;26.31;100849.05;1735262;82;21125;-64
2021/04/17 10:59:03;;;;;;;2.60;1.82;;;;;;;20.59;25.18;100851.98;1749458;82;21521;-63
2021/04/17 11:01:37;;;;;;;3.55;1.50;;;;;;;20.62;25.87;100847.83;1753447;82;21169;-64
2021/04/17 11:04:04;;;;;;;2.55;1.57;;;;;;;20.73;25.38;100847.31;1738018;81;21170;-55
2021/04/17 11:06:37;;;;;;;2.15;1.52;;;;;;;20.92;24.96;100843.31;1733555;82;21198;-55
2021/04/17 11:09:19;;;;;;;2.27;1.32;;;;;;;21.16;24.61;100842.19;1753578;82;21349;-55
2021/04/17 11:12:01;;;;;;;3.65;1.52;;;;;;;21.47;24.98;100841.52;1753628;82;21145;-55
2021/04/17 11:14:30;;;;;;;3.58;1.62;;;;;;;21.77;25.37;100834.70;1752881;82;21538;-55
2021/04/17 11:16:57;;;;;;;2.55;1.40;;;;;;;22.03;24.19;100833.33;1749715;82;21632;-55
2021/04/17 11:19:34;;;;;;;2.37;1.60;;;;;;;22.21;24.11;100820.75;1753354;82;21201;-54
2021/04/17 11:22:14;;;;;;;1.80;1.30;;;;;;;22.39;24.04;100827.37;1748210;82;21162;-55
2021/04/17 11:25:05;;;;;;;4.28;2.02;;;;;;;22.49;22.45;100819.74;1726444;81;21610;-54
2021/04/17 11:27:35;;;;;;;2.60;1.72;;;;;;;22.21;23.73;100819.41;1740151;82;21211;-55
2021/04/17 11:30:08;;;;;;;2.08;1.50;;;;;;;22.07;23.57;100823.30;1740118;82;21189;-64
2021/04/17 11:32:36;;;;;;;2.05;1.50;;;;;;;21.99;23.30;100822.38;1737860;82;21276;-64
2021/04/17 11:35:08;;;;;;;3.17;1.90;;;;;;;21.72;23.27;100820.19;1745328;81;21200;-64
2021/04/17 11:37:35;;;;;;;3.12;1.70;;;;;;;21.52;24.36;100819.39;1740359;82;21171;-64
2021/04/17 11:40:05;;;;;;;2.83;1.80;;;;;;;21.05;23.25;100823.50;1740293;82;21159;-54
2021/04/17 11:42:33;;;;;;;4.53;2.55;;;;;;;20.68;24.55;100825.74;1741085;81;21184;-64
2021/04/17 11:45:01;;;;;;;2.87;2.02;;;;;;;20.33;24.97;100823.30;1754153;82;21174;-54
2021/04/17 11:47:28;;;;;;;2.83;1.95;;;;;;;20.31;25.13;100822.98;1754690;82;21163;-64